Time;durP1;ratioP1;P1;durP2;ratioP2;P2;SDS_P1;SDS_P2;PMS_P1;PMS_P2;Temp;Humidity;BMP_temperature;BMP_pressure;BME280_temperature;BME280_humidity;BME280_pressure;Samples;Min_cycle;Max_cycle;Signal;HPM_P1;HPM_P2
2023/04/27 00:02:37;;;;;;;17.92;8.80;;;6.20;99.90;;;;;;4973307;28;20027;-45
2023/04/27 00:05:23;;;;;;;13.20;8.45;;;6.20;99.90;;;;;;4976876;28;20085;-43
2023/04/27 00:08:09;;;;;;;11.82;8.98;;;6.10;99.90;;;;;;4971831;28;20178;-47
2023/04/27 00:10:55;;;;;;;12.55;7.93;;;6.10;99.90;;;;;;4958425;28;20036;-44
2023/04/27 00:13:41;;;;;;;11.48;8.48;;;6.00;99.90;;;;;;4972364;28;20019;-47
2023/04/27 00:16:27;;;;;;;12.30;8.73;;;6.00;99.90;;;;;;4971395;28;20022;-43
2023/04/27 00:19:14;;;;;;;16.90;7.88;;;6.00;99.90;;;;;;4973609;28;20045;-44
2023/04/27 00:21:59;;;;;;;13.50;8.80;;;5.90;99.90;;;;;;4973945;28;20039;-43
2023/04/27 00:24:45;;;;;;;11.55;8.73;;;6.00;99.90;;;;;;4972246;28;20026;-46
2023/04/27 00:27:31;;;;;;;11.77;8.02;;;6.00;99.90;;;;;;4973797;28;20492;-45
2023/04/27 00:30:17;;;;;;;10.75;8.65;;;6.00;99.90;;;;;;4971371;28;20031;-48
2023/04/27 00:33:03;;;;;;;11.90;8.38;;;6.00;99.90;;;;;;4973927;28;20081;-52
2023/04/27 00:35:49;;;;;;;13.63;8.82;;;6.00;99.90;;;;;;4971345;28;20026;-45
2023/04/27 00:38:35;;;;;;;13.55;9.10;;;6.00;99.90;;;;;;4971780;28;20031;-44
2023/04/27 00:41:21;;;;;;;13.15;8.10;;;6.00;99.90;;;;;;4974316;28;20579;-47
2023/04/27 00:44:07;;;;;;;12.55;8.93;;;5.90;99.90;;;;;;4960721;28;20519;-48
2023/04/27 00:46:54;;;;;;;11.93;8.95;;;5.90;99.90;;;;;;4972944;28;20027;-45
2023/04/27 00:49:40;;;;;;;11.00;8.27;;;5.90;99.90;;;;;;4972629;28;20122;-49
2023/04/27 00:52:26;;;;;;;10.68;8.70;;;5.90;99.90;;;;;;4972185;28;20057;-47
2023/04/27 00:55:12;;;;;;;11.32;8.50;;;5.80;99.90;;;;;;4972593;28;20082;-49
2023/04/27 00:57:58;;;;;;;9.75;8.55;;;5.80;99.90;;;;;;4973437;28;20061;-43
2023/04/27 01:00:44;;;;;;;16.40;8.90;;;5.70;99.90;;;;;;4971539;28;20380;-45
2023/04/27 01:03:30;;;;;;;13.18;9.02;;;5.70;99.90;;;;;;4971335;28;20034;-46
2023/04/27 01:06:16;;;;;;;11.70;8.80;;;5.60;99.90;;;;;;4970200;28;20027;-45
2023/04/27 01:09:04;;;;;;;12.85;9.57;;;5.50;99.90;;;;;;4972777;28;20035;-44
2023/04/27 01:11:50;;;;;;;10.70;8.00;;;5.50;99.90;;;;;;4971799;28;20034;-43
2023/04/27 01:14:36;;;;;;;11.18;8.68;;;5.50;99.90;;;;;;4973365;28;20027;-44
2023/04/27 01:17:21;;;;;;;13.65;8.57;;;5.40;99.90;;;;;;4972636;28;20030;-47
2023/04/27 01:20:08;;;;;;;17.38;9.50;;;5.30;99.90;;;;;;4971378;28;21254;-43
2023/04/27 01:22:57;;;;;;;13.52;8.93;;;5.20;99.90;;;;;;4971578;28;20035;-43
2023/04/27 01:25:44;;;;;;;13.30;8.60;;;5.20;99.90;;;;;;4970027;28;20038;-46
2023/04/27 01:28:30;;;;;;;13.52;9.15;;;5.20;99.90;;;;;;4970849;28;20031;-45
2023/04/27 01:31:16;;;;;;;12.23;8.55;;;5.20;99.90;;;;;;4972796;28;20033;-43
2023/04/27 01:34:02;;;;;;;12.85;8.65;;;5.20;99.90;;;;;;4970855;28;20037;-44
2023/04/27 01:36:48;;;;;;;10.57;8.80;;;5.10;99.90;;;;;;4972207;28;20098;-44
2023/04/27 01:39:34;;;;;;;14.77;8.93;;;5.10;99.90;;;;;;4971123;28;20066;-44
2023/04/27 01:42:20;;;;;;;13.63;9.05;;;5.10;99.90;;;;;;4971689;28;20429;-43
2023/04/27 01:45:07;;;;;;;15.75;8.60;;;5.10;99.90;;;;;;4973038;28;20502;-47
2023/04/27 01:47:53;;;;;;;13.60;8.32;;;5.20;99.90;;;;;;4971885;28;20465;-44
2023/04/27 01:50:39;;;;;;;15.35;9.15;;;5.20;99.90;;;;;;4971970;28;20411;-45
2023/04/27 01:53:25;;;;;;;16.98;8.63;;;5.10;99.90;;;;;;4971434;28;20400;-45
2023/04/27 01:56:11;;;;;;;13.30;8.85;;;5.20;99.90;;;;;;4971361;28;20035;-43
2023/04/27 01:58:57;;;;;;;13.55;8.57;;;5.10;99.90;;;;;;4971819;28;20038;-44
2023/04/27 02:01:43;;;;;;;13.40;9.15;;;5.10;99.90;;;;;;4971260;28;20027;-43
2023/04/27 02:04:29;;;;;;;15.10;8.20;;;5.10;99.90;;;;;;4972347;28;20110;-45
2023/04/27 02:07:15;;;;;;;13.85;8.63;;;5.00;99.90;;;;;;4970334;28;20111;-43
2023/04/27 02:10:01;;;;;;;12.48;8.38;;;5.10;99.90;;;;;;4970703;28;20575;-44
2023/04/27 02:12:47;;;;;;;12.75;9.02;;;5.00;99.90;;;;;;4971786;28;20035;-44
2023/04/27 02:15:34;;;;;;;15.35;8.88;;;4.90;99.90;;;;;;4970685;28;20038;-46
2023/04/27 02:18:20;;;;;;;15.48;8.48;;;4.90;99.90;;;;;;4970612;28;20042;-45
2023/04/27 02:21:09;;;;;;;12.38;9.65;;;4.90;99.90;;;;;;4970681;28;20035;-45
2023/04/27 02:23:55;;;;;;;15.13;9.30;;;4.80;99.90;;;;;;4971546;28;20041;-43
2023/04/27 02:26:41;;;;;;;15.80;8.77;;;4.80;99.90;;;;;;4969561;28;20050;-47
2023/04/27 02:29:30;;;;;;;12.98;8.73;;;4.70;99.90;;;;;;4971757;28;20042;-45
2023/04/27 02:32:16;;;;;;;14.07;9.15;;;4.80;99.90;;;;;;4972758;28;20508;-43
2023/04/27 02:35:03;;;;;;;12.52;8.95;;;4.80;99.90;;;;;;4972858;28;20110;-44
2023/04/27 02:37:49;;;;;;;13.50;8.57;;;4.80;99.90;;;;;;4952098;28;20101;-49
2023/04/27 02:40:34;;;;;;;11.95;9.00;;;4.80;99.90;;;;;;4971725;28;20038;-44
2023/04/27 02:43:21;;;;;;;14.63;9.15;;;4.80;99.90;;;;;;4974182;28;20031;-43
2023/04/27 02:46:07;;;;;;;13.02;9.00;;;4.70;99.90;;;;;;4973888;28;20082;-45
2023/04/27 02:48:55;;;;;;;14.77;9.18;;;4.70;99.90;;;;;;4972541;28;20480;-46
2023/04/27 02:51:41;;;;;;;14.00;10.13;;;4.70;99.90;;;;;;4974272;28;20031;-44
2023/04/27 02:54:27;;;;;;;14.35;9.13;;;4.70;99.90;;;;;;4972553;28;20109;-45
2023/04/27 02:57:13;;;;;;;12.65;9.15;;;4.70;99.90;;;;;;4972760;28;20118;-44
2023/04/27 02:59:59;;;;;;;12.52;9.05;;;4.80;99.90;;;;;;4974051;28;20027;-45
2023/04/27 03:02:45;;;;;;;13.52;9.20;;;4.80;99.90;;;;;;4969477;28;20488;-42
2023/04/27 03:05:31;;;;;;;10.82;8.88;;;4.80;99.90;;;;;;4972390;28;20407;-45
2023/04/27 03:08:17;;;;;;;14.02;9.35;;;4.90;99.90;;;;;;4971647;28;20070;-46
2023/04/27 03:11:03;;;;;;;12.27;9.15;;;4.90;99.90;;;;;;4953937;28;20423;-44
2023/04/27 03:13:49;;;;;;;12.45;9.13;;;4.80;99.90;;;;;;4957235;28;20034;-46
2023/04/27 03:16:35;;;;;;;16.08;9.20;;;4.80;99.90;;;;;;4972259;28;20020;-44
2023/04/27 03:19:21;;;;;;;13.55;9.43;;;4.80;99.90;;;;;;4972070;28;20070;-44
2023/04/27 03:22:07;;;;;;;12.45;9.45;;;4.80;99.90;;;;;;4972771;28;20031;-44
2023/04/27 03:24:52;;;;;;;13.65;9.15;;;4.80;99.90;;;;;;4972042;28;20031;-46
2023/04/27 03:27:38;;;;;;;13.48;9.55;;;4.80;99.90;;;;;;4971595;28;20027;-46
2023/04/27 03:30:24;;;;;;;12.60;9.82;;;4.80;99.90;;;;;;4971750;28;20415;-47
2023/04/27 03:33:10;;;;;;;16.40;9.48;;;4.80;99.90;;;;;;4966288;28;20034;-49
2023/04/27 03:35:57;;;;;;;16.48;10.43;;;4.90;99.90;;;;;;4982503;28;20108;-46
2023/04/27 03:38:43;;;;;;;18.27;10.25;;;4.70;99.90;;;;;;4971039;28;20038;-43
2023/04/27 03:41:29;;;;;;;12.77;9.98;;;4.70;99.90;;;;;;4982091;28;20038;-44
2023/04/27 03:44:15;;;;;;;11.65;9.07;;;4.70;99.90;;;;;;4976650;28;20034;-44
2023/04/27 03:47:01;;;;;;;12.15;9.57;;;4.60;99.90;;;;;;4976937;28;20031;-44
2023/04/27 03:49:47;;;;;;;14.68;10.02;;;4.40;99.90;;;;;;4975388;28;20035;-48
2023/04/27 03:52:33;;;;;;;14.25;9.45;;;4.40;99.90;;;;;;4975428;28;20125;-49
2023/04/27 03:55:19;;;;;;;13.35;9.27;;;4.50;99.90;;;;;;4977199;28;20627;-44
2023/04/27 03:58:05;;;;;;;14.15;9.93;;;4.50;99.90;;;;;;4974515;28;20073;-46
2023/04/27 04:00:53;;;;;;;35.67;21.55;;;4.50;99.90;;;;;;4969187;28;20027;-46
2023/04/27 04:03:39;;;;;;;52.33;29.05;;;4.50;99.90;;;;;;4972697;28;20118;-43
2023/04/27 04:06:26;;;;;;;46.17;25.88;;;4.60;99.90;;;;;;4969278;28;20097;-43
2023/04/27 04:09:13;;;;;;;22.88;13.30;;;4.60;99.90;;;;;;4974932;28;20046;-43
2023/04/27 04:11:59;;;;;;;15.95;10.93;;;4.70;99.90;;;;;;4974193;28;20034;-43
2023/04/27 04:14:47;;;;;;;13.10;10.57;;;4.70;99.90;;;;;;4975484;28;20026;-43
2023/04/27 04:17:33;;;;;;;13.77;10.70;;;4.70;99.90;;;;;;4971045;28;20042;-42
2023/04/27 04:20:19;;;;;;;15.00;10.52;;;4.70;99.90;;;;;;4974859;28;20413;-46
2023/04/27 04:23:06;;;;;;;13.60;9.93;;;4.70;99.90;;;;;;4981012;28;20416;-44
2023/04/27 04:25:53;;;;;;;15.00;10.35;;;4.70;99.90;;;;;;4974704;28;20038;-44
2023/04/27 04:28:39;;;;;;;15.13;10.32;;;4.70;99.90;;;;;;4975141;28;20031;-43
2023/04/27 04:31:25;;;;;;;16.23;10.95;;;4.80;99.90;;;;;;4965478;28;20035;-45
2023/04/27 04:34:11;;;;;;;17.67;10.55;;;4.80;99.90;;;;;;4960253;28;20027;-47
2023/04/27 04:36:57;;;;;;;14.68;10.18;;;4.90;99.90;;;;;;4974410;28;20081;-43
2023/04/27 04:39:44;;;;;;;18.05;11.98;;;4.90;99.90;;;;;;4982320;28;20092;-43
2023/04/27 04:42:30;;;;;;;21.17;11.82;;;4.80;99.90;;;;;;4980232;28;20541;-43
2023/04/27 04:45:16;;;;;;;18.30;10.98;;;4.90;99.90;;;;;;4980897;28;20122;-43
2023/04/27 04:48:03;;;;;;;34.90;11.70;;;5.00;99.90;;;;;;4974666;28;20035;-48
2023/04/27 04:50:49;;;;;;;19.85;11.65;;;5.00;99.90;;;;;;4969173;28;20023;-48
2023/04/27 04:53:35;;;;;;;24.20;11.63;;;5.10;99.90;;;;;;4966849;28;20071;-47
2023/04/27 04:56:21;;;;;;;21.17;12.30;;;5.10;99.90;;;;;;4963477;28;20035;-43
2023/04/27 04:59:07;;;;;;;23.02;12.13;;;5.20;99.90;;;;;;4976313;28;20031;-44
2023/04/27 05:01:54;;;;;;;18.85;11.70;;;5.20;99.90;;;;;;4969665;28;20031;-44
2023/04/27 05:04:40;;;;;;;16.63;11.73;;;5.20;99.90;;;;;;4969857;28;20038;-44
2023/04/27 05:07:26;;;;;;;20.42;12.05;;;5.10;99.90;;;;;;4967001;28;20043;-43
2023/04/27 05:10:12;;;;;;;17.88;11.18;;;5.10;99.90;;;;;;4980031;28;20039;-45
2023/04/27 05:12:58;;;;;;;16.90;11.93;;;5.20;99.90;;;;;;4972313;28;20038;-42
2023/04/27 05:15:44;;;;;;;25.05;12.48;;;5.30;99.90;;;;;;4968587;28;20037;-43
2023/04/27 05:18:30;;;;;;;21.20;12.85;;;5.40;99.90;;;;;;4975924;28;20514;-46
2023/04/27 05:21:19;;;;;;;19.20;12.25;;;5.50;99.90;;;;;;4980736;28;20034;-48
2023/04/27 05:24:05;;;;;;;16.23;11.75;;;5.50;99.90;;;;;;4991718;28;20109;-47
2023/04/27 05:26:52;;;;;;;21.80;13.05;;;5.50;99.90;;;;;;4991759;28;20108;-47
2023/04/27 05:29:38;;;;;;;21.50;12.48;;;5.50;99.90;;;;;;4991445;28;20509;-48
2023/04/27 05:32:24;;;;;;;22.70;12.70;;;5.40;99.90;;;;;;4991881;28;20487;-48
2023/04/27 05:35:10;;;;;;;23.13;13.63;;;5.40;99.90;;;;;;4992511;28;20113;-51
2023/04/27 05:37:56;;;;;;;20.92;13.00;;;5.40;99.90;;;;;;4992930;28;20054;-50
2023/04/27 05:40:42;;;;;;;21.40;12.80;;;5.40;99.90;;;;;;4993168;28;20590;-43
2023/04/27 05:43:28;;;;;;;21.45;12.32;;;5.40;99.90;;;;;;4992995;28;20034;-45
2023/04/27 05:46:15;;;;;;;18.05;11.77;;;5.40;99.90;;;;;;4993180;28;20068;-47
2023/04/27 05:49:00;;;;;;;21.75;14.13;;;5.50;99.90;;;;;;4978881;28;20057;-45
2023/04/27 05:51:46;;;;;;;26.85;16.90;;;5.60;99.90;;;;;;4992562;28;20030;-49
2023/04/27 05:54:32;;;;;;;27.27;14.82;;;5.70;99.90;;;;;;4993034;28;20517;-48
2023/04/27 05:57:18;;;;;;;23.65;12.95;;;5.70;99.90;;;;;;4991586;28;20538;-45
2023/04/27 06:00:09;;;;;;;22.77;13.82;;;5.60;99.90;;;;;;4995081;28;20038;-46
2023/04/27 06:02:55;;;;;;;21.05;13.20;;;5.70;99.90;;;;;;4991676;28;20458;-45
2023/04/27 06:05:41;;;;;;;16.65;12.70;;;5.80;99.90;;;;;;4978231;28;20502;-43
2023/04/27 06:08:28;;;;;;;20.58;12.55;;;6.00;99.90;;;;;;4995812;28;20057;-49
2023/04/27 06:11:15;;;;;;;17.50;12.20;;;6.00;99.90;;;;;;4993886;28;20023;-46
2023/04/27 06:14:01;;;;;;;19.83;12.55;;;6.10;99.90;;;;;;4992381;28;20026;-44
2023/04/27 06:16:47;;;;;;;20.13;12.82;;;6.10;99.90;;;;;;4977410;28;20499;-45
2023/04/27 06:19:32;;;;;;;19.50;12.38;;;6.10;99.90;;;;;;4991538;28;20058;-44
2023/04/27 06:22:18;;;;;;;24.35;13.90;;;6.20;99.90;;;;;;4991385;28;20040;-43
2023/04/27 06:25:05;;;;;;;21.70;12.90;;;6.10;99.90;;;;;;4991282;28;20113;-45
2023/04/27 06:27:51;;;;;;;22.02;13.73;;;6.20;99.90;;;;;;4990863;28;20026;-46
2023/04/27 06:30:37;;;;;;;27.08;14.32;;;6.30;99.90;;;;;;4992421;28;20029;-43
2023/04/27 06:33:23;;;;;;;23.80;13.38;;;6.40;99.90;;;;;;4991786;28;20422;-45
2023/04/27 06:36:09;;;;;;;20.20;12.95;;;6.40;99.90;;;;;;4991044;28;20029;-43
2023/04/27 06:38:55;;;;;;;19.80;12.68;;;6.40;99.90;;;;;;4991517;28;20026;-43
2023/04/27 06:41:41;;;;;;;22.65;14.48;;;6.50;99.90;;;;;;4991148;28;20033;-43
2023/04/27 06:44:27;;;;;;;20.65;13.00;;;6.40;99.90;;;;;;4990894;28;20036;-49
2023/04/27 06:47:13;;;;;;;21.55;13.10;;;6.40;99.90;;;;;;4991814;28;20038;-45
2023/04/27 06:49:59;;;;;;;21.80;12.48;;;6.50;99.90;;;;;;4991476;28;20034;-44
2023/04/27 06:52:45;;;;;;;21.27;12.70;;;6.60;99.90;;;;;;4991093;28;20031;-46
2023/04/27 06:55:31;;;;;;;20.55;12.75;;;6.60;99.90;;;;;;4977820;28;20033;-44
2023/04/27 06:58:17;;;;;;;20.40;13.02;;;6.90;99.90;;;;;;4990551;28;20030;-46
2023/04/27 07:01:03;;;;;;;22.73;12.85;;;6.90;99.90;;;;;;4991535;28;20026;-47
2023/04/27 07:03:49;;;;;;;20.55;12.93;;;7.20;99.90;;;;;;4991441;28;20407;-43
2023/04/27 07:06:35;;;;;;;17.85;12.35;;;7.20;99.80;;;;;;4991673;28;20026;-43
2023/04/27 07:09:21;;;;;;;19.23;12.27;;;7.30;99.90;;;;;;4991866;28;20037;-46
2023/04/27 07:12:07;;;;;;;24.35;13.15;;;7.40;99.90;;;;;;4992013;28;20030;-48
2023/04/27 07:14:53;;;;;;;21.23;12.18;;;7.50;99.70;;;;;;4991245;28;20061;-45
2023/04/27 07:17:40;;;;;;;20.17;12.20;;;7.40;99.90;;;;;;4996166;28;20026;-50
2023/04/27 07:20:26;;;;;;;19.02;10.60;;;7.60;99.90;;;;;;4981844;28;20165;-43
2023/04/27 07:23:12;;;;;;;16.13;9.98;;;7.70;99.40;;;;;;4996059;28;20034;-43
2023/04/27 07:25:59;;;;;;;15.75;10.00;;;7.70;99.00;;;;;;4995918;28;20081;-48
2023/04/27 07:28:46;;;;;;;16.90;11.27;;;7.90;98.80;;;;;;4995349;28;20030;-47
2023/04/27 07:31:32;;;;;;;23.77;10.80;;;7.70;99.20;;;;;;4994501;28;20106;-48
2023/04/27 07:34:19;;;;;;;14.23;10.15;;;7.60;99.60;;;;;;4994919;28;20526;-44
2023/04/27 07:37:06;;;;;;;17.20;9.98;;;7.80;99.30;;;;;;4995289;28;20470;-42
2023/04/27 07:39:53;;;;;;;21.20;11.18;;;7.90;99.50;;;;;;4995517;28;20093;-45
2023/04/27 07:42:40;;;;;;;17.33;10.18;;;8.10;99.00;;;;;;4995025;28;20031;-45
2023/04/27 07:45:30;;;;;;;14.70;9.98;;;8.00;99.20;;;;;;4995766;28;20027;-45
2023/04/27 07:48:17;;;;;;;15.00;9.98;;;8.10;99.30;;;;;;4996626;28;20109;-47
2023/04/27 07:51:03;;;;;;;15.40;10.13;;;8.20;98.90;;;;;;4995219;28;20488;-43
2023/04/27 07:53:49;;;;;;;13.88;10.02;;;8.40;98.90;;;;;;4995110;28;20450;-44
2023/04/27 07:56:35;;;;;;;20.45;10.88;;;8.40;99.00;;;;;;4993746;28;20033;-44
2023/04/27 07:59:21;;;;;;;15.43;11.63;;;8.60;98.90;;;;;;4994446;28;20033;-46
2023/04/27 08:02:07;;;;;;;19.52;10.75;;;8.70;98.50;;;;;;4993890;28;20053;-45
2023/04/27 08:04:52;;;;;;;17.35;10.43;;;8.70;98.50;;;;;;4995066;28;20026;-46
2023/04/27 08:07:39;;;;;;;18.10;11.27;;;8.60;99.10;;;;;;4993475;28;20042;-46
2023/04/27 08:10:25;;;;;;;23.77;10.82;;;8.70;98.80;;;;;;4994909;28;20104;-48
2023/04/27 08:13:11;;;;;;;16.88;10.30;;;8.90;98.80;;;;;;4994641;28;20023;-47
2023/04/27 08:15:58;;;;;;;19.10;10.63;;;8.90;98.70;;;;;;4994214;28;20101;-47
2023/04/27 08:18:43;;;;;;;15.05;9.80;;;9.00;98.40;;;;;;4979562;28;20034;-44
2023/04/27 08:21:29;;;;;;;17.52;10.55;;;9.10;97.90;;;;;;4994681;28;20042;-43
2023/04/27 08:24:15;;;;;;;17.90;11.27;;;9.20;98.10;;;;;;4993351;28;20034;-45
2023/04/27 08:27:02;;;;;;;19.33;10.18;;;9.10;97.60;;;;;;4992414;28;20491;-44
2023/04/27 08:29:48;;;;;;;14.25;10.07;;;9.20;98.10;;;;;;4993839;28;20026;-43
2023/04/27 08:32:34;;;;;;;16.60;10.35;;;9.40;97.90;;;;;;4980231;28;20034;-44
2023/04/27 08:35:20;;;;;;;18.65;10.88;;;9.50;97.60;;;;;;4993659;28;20034;-43
2023/04/27 08:38:06;;;;;;;16.23;10.63;;;9.30;97.50;;;;;;4994302;28;20499;-45
2023/04/27 08:40:52;;;;;;;14.05;9.82;;;9.10;97.00;;;;;;4993285;28;20027;-45
2023/04/27 08:43:38;;;;;;;16.95;9.60;;;9.10;96.90;;;;;;4994256;28;20406;-46
2023/04/27 08:46:26;;;;;;;16.17;9.95;;;9.30;96.80;;;;;;4993994;28;20438;-45
2023/04/27 08:49:12;;;;;;;17.73;10.45;;;9.30;97.10;;;;;;4992972;28;20027;-47
2023/04/27 08:51:58;;;;;;;13.95;8.60;;;9.50;97.10;;;;;;4979657;28;20026;-45
2023/04/27 08:54:44;;;;;;;16.90;10.55;;;9.80;96.60;;;;;;4994183;28;20030;-48
2023/04/27 08:57:30;;;;;;;14.43;9.27;;;9.90;95.90;;;;;;4993885;28;20026;-43
2023/04/27 09:00:16;;;;;;;13.80;8.85;;;9.90;95.60;;;;;;4993872;28;20114;-50
2023/04/27 09:03:03;;;;;;;13.40;8.52;;;10.10;95.50;;;;;;4993898;28;20084;-48
2023/04/27 09:05:49;;;;;;;11.88;9.07;;;10.20;94.60;;;;;;4993656;28;20042;-43
2023/04/27 09:08:46;;;;;;;15.90;8.98;;;10.20;94.10;;;;;;4994264;28;20098;-44
2023/04/27 09:11:37;;;;;;;15.13;9.07;;;10.00;95.00;;;;;;4992711;28;20089;-49
2023/04/27 09:14:23;;;;;;;13.55;8.75;;;9.90;94.50;;;;;;4993316;28;20022;-47
2023/04/27 09:17:10;;;;;;;14.65;9.52;;;9.90;94.40;;;;;;4992924;28;20446;-45
2023/04/27 09:20:17;;;;;;;15.57;9.60;;;10.00;94.40;;;;;;4978343;28;20035;-47
2023/04/27 09:23:03;;;;;;;11.93;7.25;;;9.90;93.90;;;;;;4975164;28;20042;-45
2023/04/27 09:25:49;;;;;;;15.45;7.97;;;10.00;93.50;;;;;;4974165;28;20110;-44
2023/04/27 09:28:39;;;;;;;11.30;8.15;;;10.10;93.10;;;;;;4973951;28;20027;-44
2023/04/27 09:31:32;;;;;;;11.68;7.43;;;10.20;93.30;;;;;;4973958;28;20480;-47
2023/04/27 09:34:18;;;;;;;11.73;8.40;;;10.50;93.00;;;;;;4973428;28;20459;-43
2023/04/27 09:37:05;;;;;;;11.05;7.88;;;11.00;92.90;;;;;;4972390;28;20519;-45
2023/04/27 09:39:51;;;;;;;12.18;8.25;;;11.40;91.70;;;;;;4973222;28;20058;-48
2023/04/27 09:42:37;;;;;;;10.77;7.72;;;11.50;91.40;;;;;;4973752;28;20031;-43
2023/04/27 09:45:24;;;;;;;15.63;8.73;;;11.30;90.90;;;;;;4973595;28;20035;-48
2023/04/27 09:48:11;;;;;;;12.95;8.98;;;10.90;90.90;;;;;;4972090;28;20031;-44
2023/04/27 09:50:57;;;;;;;11.63;8.05;;;10.80;91.10;;;;;;4959099;28;20553;-47
2023/04/27 09:53:51;;;;;;;11.30;8.13;;;11.00;91.00;;;;;;4972677;28;20519;-44
2023/04/27 09:57:01;;;;;;;12.93;7.50;;;10.60;91.00;;;;;;4973352;28;20027;-45
2023/04/27 10:00:16;;;;;;;14.93;8.25;;;10.70;90.60;;;;;;4972980;28;20054;-43
2023/04/27 10:03:28;;;;;;;10.80;7.32;;;11.10;90.50;;;;;;4972560;28;20027;-50
2023/04/27 10:06:52;;;;;;;14.95;8.52;;;11.20;90.60;;;;;;4972380;28;20035;-46
2023/04/27 10:09:45;;;;;;;10.75;7.55;;;11.30;90.10;;;;;;4959194;28;20495;-48
2023/04/27 10:12:37;;;;;;;11.85;7.45;;;11.40;90.30;;;;;;4960249;28;20134;-43
2023/04/27 10:15:28;;;;;;;10.05;6.97;;;11.50;85.50;;;;;;4971945;28;20027;-42
2023/04/27 10:18:33;;;;;;;11.05;6.85;;;11.80;84.40;;;;;;4972600;28;20037;-44
2023/04/27 10:21:19;;;;;;;11.75;7.47;;;12.00;84.80;;;;;;4973003;28;20520;-50
2023/04/27 10:24:07;;;;;;;12.35;7.18;;;12.10;84.10;;;;;;4972745;28;20112;-46
2023/04/27 10:27:02;;;;;;;11.80;7.25;;;11.90;84.20;;;;;;4972823;28;20027;-46
2023/04/27 10:29:49;;;;;;;12.35;6.93;;;11.60;84.70;;;;;;4972619;28;20511;-43
2023/04/27 10:32:35;;;;;;;11.98;7.45;;;11.30;86.10;;;;;;4973066;28;20031;-50
2023/04/27 10:35:31;;;;;;;11.70;7.35;;;11.50;86.70;;;;;;4972402;28;20456;-44
2023/04/27 10:38:20;;;;;;;11.18;8.02;;;11.10;88.60;;;;;;4972454;28;20514;-48
2023/04/27 10:41:13;;;;;;;11.00;7.72;;;11.10;89.30;;;;;;4971774;28;20041;-44
2023/04/27 10:44:16;;;;;;;14.98;7.57;;;11.40;88.30;;;;;;4972826;28;20070;-47
2023/04/27 10:47:18;;;;;;;10.73;7.47;;;11.30;88.40;;;;;;4972501;28;20518;-43
2023/04/27 10:50:06;;;;;;;11.18;8.10;;;11.30;88.00;;;;;;4971498;28;20434;-47
2023/04/27 10:52:52;;;;;;;11.70;7.95;;;10.80;85.50;;;;;;4972431;28;20172;-46
2023/04/27 10:55:38;;;;;;;15.40;9.52;;;10.80;86.60;;;;;;4945772;28;20518;-43
2023/04/27 10:58:24;;;;;;;12.48;7.53;;;10.90;86.60;;;;;;4972304;28;20400;-50
2023/04/27 11:01:11;;;;;;;10.63;8.93;;;10.90;85.60;;;;;;4971327;28;20070;-49
2023/04/27 11:03:59;;;;;;;13.00;8.50;;;10.90;85.00;;;;;;4972644;28;20023;-43
2023/04/27 11:06:45;;;;;;;11.73;8.70;;;10.50;85.20;;;;;;4972369;28;20035;-44
2023/04/27 11:09:31;;;;;;;12.60;8.75;;;10.60;85.70;;;;;;4972210;28;20031;-46
2023/04/27 11:12:17;;;;;;;16.77;8.52;;;10.80;86.20;;;;;;4972479;28;20101;-44
2023/04/27 11:15:04;;;;;;;14.63;8.35;;;11.20;85.40;;;;;;4972439;28;20027;-45
2023/04/27 11:17:50;;;;;;;10.43;8.52;;;11.30;84.90;;;;;;4972278;28;20041;-48
2023/04/27 11:20:36;;;;;;;11.50;8.88;;;11.70;83.10;;;;;;4971622;28;20515;-44
2023/04/27 11:23:27;;;;;;;14.02;8.85;;;12.10;82.20;;;;;;4971100;28;20034;-44
2023/04/27 11:26:24;;;;;;;10.60;8.98;;;12.20;83.40;;;;;;4973000;28;20492;-45
2023/04/27 11:29:14;;;;;;;14.93;8.60;;;12.20;83.10;;;;;;4971924;28;20027;-45
2023/04/27 11:32:01;;;;;;;13.98;9.40;;;12.30;83.60;;;;;;4972257;28;20031;-43
2023/04/27 11:34:53;;;;;;;14.35;9.10;;;11.90;83.20;;;;;;4972055;28;20089;-43
2023/04/27 11:37:39;;;;;;;14.05;9.32;;;11.60;82.20;;;;;;4972430;28;20522;-44
2023/04/27 11:40:27;;;;;;;11.65;9.10;;;11.70;82.40;;;;;;4971226;28;20047;-44
2023/04/27 11:43:14;;;;;;;14.25;8.50;;;11.80;82.00;;;;;;4973310;28;20031;-44
2023/04/27 11:46:04;;;;;;;11.50;8.35;;;11.70;81.90;;;;;;4972087;28;20114;-43
2023/04/27 11:48:50;;;;;;;17.88;8.55;;;11.80;81.50;;;;;;4972038;28;20034;-43
2023/04/27 11:51:38;;;;;;;10.40;8.30;;;11.80;82.20;;;;;;4971853;28;20522;-45
2023/04/27 11:54:28;;;;;;;10.48;8.30;;;12.00;82.30;;;;;;4970967;28;20522;-46
2023/04/27 11:57:14;;;;;;;14.77;9.25;;;12.30;81.40;;;;;;4957885;28;20031;-44
2023/04/27 12:00:13;;;;;;;12.32;9.02;;;12.30;81.30;;;;;;4971383;28;20034;-44
2023/04/27 12:02:59;;;;;;;15.50;8.95;;;12.20;82.10;;;;;;4975450;28;20038;-45
2023/04/27 12:05:51;;;;;;;15.15;9.10;;;12.00;82.20;;;;;;4975528;28;20035;-48
2023/04/27 12:08:37;;;;;;;18.00;9.52;;;11.90;82.50;;;;;;4975138;28;20118;-51
2023/04/27 12:11:26;;;;;;;13.75;8.85;;;12.10;81.90;;;;;;4975106;28;20046;-43
2023/04/27 12:14:12;;;;;;;16.70;9.90;;;12.20;82.10;;;;;;4975412;28;20336;-43
2023/04/27 12:16:58;;;;;;;12.52;9.50;;;12.40;80.60;;;;;;4975094;28;20073;-44
2023/04/27 12:19:44;;;;;;;13.05;8.63;;;12.50;79.00;;;;;;4974317;28;20093;-43
2023/04/27 12:22:30;;;;;;;11.52;8.73;;;12.80;78.30;;;;;;4975208;28;20173;-47
2023/04/27 12:25:17;;;;;;;11.95;8.43;;;12.70;77.90;;;;;;4975329;28;20039;-48
2023/04/27 12:28:03;;;;;;;10.45;8.40;;;12.70;77.50;;;;;;4974427;28;20519;-44
2023/04/27 12:30:49;;;;;;;14.27;9.27;;;12.70;77.60;;;;;;4977110;28;20042;-44
2023/04/27 12:33:35;;;;;;;11.85;8.55;;;12.90;76.80;;;;;;4975391;28;20105;-43
2023/04/27 12:36:21;;;;;;;9.13;7.88;;;13.10;77.90;;;;;;4974863;28;20054;-46
2023/04/27 12:39:16;;;;;;;13.82;8.98;;;13.20;78.50;;;;;;4973686;28;20042;-45
2023/04/27 12:42:02;;;;;;;11.38;8.25;;;13.50;78.10;;;;;;4975052;28;20098;-45
2023/04/27 12:44:51;;;;;;;12.57;8.02;;;13.40;77.50;;;;;;4974897;28;20174;-50
2023/04/27 12:47:39;;;;;;;11.57;7.90;;;13.60;77.50;;;;;;4974432;28;20031;-44
2023/04/27 12:50:25;;;;;;;13.70;8.23;;;13.90;75.60;;;;;;4974646;28;20049;-46
2023/04/27 12:53:11;;;;;;;11.75;8.00;;;13.40;75.70;;;;;;4973783;28;20031;-45
2023/04/27 12:55:59;;;;;;;12.45;7.57;;;13.60;76.20;;;;;;4974265;28;20097;-47
2023/04/27 12:58:45;;;;;;;12.93;7.90;;;13.60;75.70;;;;;;4973283;28;20066;-45
2023/04/27 13:01:32;;;;;;;14.05;8.05;;;13.60;76.40;;;;;;4973916;28;20523;-45
2023/04/27 13:04:19;;;;;;;9.40;7.38;;;13.90;75.20;;;;;;4974071;28;20030;-43
2023/04/27 13:07:05;;;;;;;12.25;8.02;;;13.60;74.80;;;;;;4974267;28;20049;-49
2023/04/27 13:09:51;;;;;;;17.05;8.48;;;13.40;75.60;;;;;;4974597;28;20069;-49
2023/04/27 13:12:37;;;;;;;12.80;7.88;;;13.30;74.80;;;;;;4973167;28;20562;-48
2023/04/27 13:15:23;;;;;;;14.25;8.27;;;13.50;74.50;;;;;;4973867;28;20117;-45
2023/04/27 13:18:09;;;;;;;13.98;8.10;;;13.10;74.90;;;;;;4973849;28;20062;-44
2023/04/27 13:20:55;;;;;;;9.75;7.78;;;13.40;75.10;;;;;;4974228;28;20599;-45
2023/04/27 13:23:41;;;;;;;11.27;7.32;;;13.60;73.40;;;;;;4974242;28;20034;-44
2023/04/27 13:26:27;;;;;;;8.60;7.35;;;13.50;72.30;;;;;;4974057;28;20134;-45
2023/04/27 13:29:13;;;;;;;10.38;7.50;;;13.70;71.80;;;;;;4973244;28;20206;-47
2023/04/27 13:31:59;;;;;;;16.30;7.70;;;14.20;71.50;;;;;;4972919;28;20027;-44
2023/04/27 13:34:45;;;;;;;10.10;8.00;;;14.50;71.40;;;;;;4973954;28;20035;-46
2023/04/27 13:37:31;;;;;;;11.40;8.15;;;14.00;71.40;;;;;;4960101;28;20397;-44
2023/04/27 13:40:17;;;;;;;10.10;7.63;;;13.60;72.20;;;;;;4960064;28;20027;-45
2023/04/27 13:43:03;;;;;;;10.40;7.78;;;13.70;72.80;;;;;;4972753;28;20023;-45
2023/04/27 13:45:51;;;;;;;11.85;7.72;;;13.90;72.50;;;;;;4973778;28;20114;-47
2023/04/27 13:48:37;;;;;;;10.32;6.95;;;13.90;73.70;;;;;;4973626;28;20031;-44
2023/04/27 13:51:23;;;;;;;11.98;8.90;;;13.90;74.70;;;;;;4973690;28;20027;-46
2023/04/27 13:54:09;;;;;;;11.93;7.60;;;14.20;73.30;;;;;;4960544;28;20098;-47
2023/04/27 13:56:56;;;;;;;9.63;7.68;;;14.30;73.40;;;;;;4973544;28;20027;-47
2023/04/27 13:59:42;;;;;;;13.10;7.35;;;14.40;73.40;;;;;;4973576;28;20023;-45
2023/04/27 14:02:28;;;;;;;10.55;7.45;;;14.50;73.50;;;;;;4972412;28;20035;-46
2023/04/27 14:05:14;;;;;;;14.25;7.78;;;14.30;73.00;;;;;;4973521;28;20034;-47
2023/04/27 14:08:00;;;;;;;9.82;7.88;;;14.20;73.90;;;;;;4973401;28;20038;-44
2023/04/27 14:10:47;;;;;;;12.15;7.50;;;14.30;73.40;;;;;;4973026;28;20035;-47
2023/04/27 14:13:33;;;;;;;12.10;8.13;;;14.60;72.70;;;;;;4973336;28;20030;-48
2023/04/27 14:16:19;;;;;;;16.08;7.80;;;15.20;71.60;;;;;;4959749;28;20079;-52
2023/04/27 14:19:05;;;;;;;10.02;7.32;;;15.60;70.60;;;;;;4972507;28;20403;-46
2023/04/27 14:21:51;;;;;;;9.52;6.75;;;16.00;69.10;;;;;;4967391;28;20055;-48
2023/04/27 14:24:37;;;;;;;8.98;7.10;;;16.20;68.00;;;;;;4959619;28;20542;-48